Woodward, Oklahoma
Current Conditions -  °F | °C
As of 12:35 PM on Saturday 20 Dec 2014 (Local Time) from KWWR Reporting Station
Broken Clouds Broken Clouds  
Wind Chill: 44°   Ceiling: 1700
Heat Index: 48°   Visibility: 10mi
Dew Point: 37°   Wind: 10mph
Humidity: 66%   Direction: 190°S
Pressure: 30.12"   Gusts: 16mph
Location:  36.43°N, 99.4°W
Report Text: KWWR 201835Z AUTO 19009G14KT 10SM BKN017 09/03 A3012 RMK AO2
Loading
Personal Weather Stations






























Interactive Weather Map New forecast layout! Learn more

10-Day Weather Forecast

Advertisements
Track Severe Weather on mobile